<?xml version="1.0" encoding="UTF-8" standalone="no" ?>
<gpx xmlns="http://www.topografix.com/GPX/1/1" xmlns:xsi="http://www.w3.org/2001/XMLSchema-instance" xsi:schemaLocation="http://www.topografix.com/GPX/1/1 http://www.topografix.com/GPX/1/1/gpx.xsd" version="1.1" creator="VisuGPX - https://www.visugpx.com">
  <metadata>
    <name>Sortie Auxerre</name>
    <desc><![CDATA[Sortie Auxerre 01/11/2015]]></desc>
  </metadata>
  <trk>
    <name><![CDATA[auxerre 31/10]]></name>
    <desc><![CDATA[<h1>OruxMaps</h1><br /><hr align="center" width="480" style="height: 2px; width: 517px"/><h2>Nom: auxerre 31/10</h2><br /><p>Temps de départ: 10/31/2015 11:06</p><p>Temps d'arrivée: 10/31/2015 11:57</p><p>Distance: 7,2km (00:51)</p><p>Temps déplacement: 00:48</p><p>Vitesse moyenne: 8,4km/h</p><p>Vitesse moyenne: 8,8km/h</p><p>Vitess Max.: 17,2km/h</p><p>Altitude minimale: 78m</p><p>Altitude maximale: 111m</p><p>Vitesse d'élévation: 663,9m/h</p><p>Vitesse de descente: -717,6m/h</p><p>Gain Altitude: 255m</p><p>Perte Altitude: -258m</p><p>Temps d'élévation: 00:23</p><p>Temps de descente: 00:21</p><hr align="center" width="480" style="height: 2px; width: 517px"/>]]></desc>
    <trkseg>
      <trkpt lat="47.79176" lon="3.57261">
        <ele>103.49</ele>
        <time>2015-10-31T10:06:45Z</time>
      </trkpt>
      <trkpt lat="47.79158" lon="3.57261">
        <ele>103.39</ele>
        <time>2015-10-31T10:07:14Z</time>
      </trkpt>
      <trkpt lat="47.7914" lon="3.5726">
        <ele>105.98</ele>
        <time>2015-10-31T10:07:28Z</time>
      </trkpt>
      <trkpt lat="47.79118" lon="3.57268">
        <ele>102.74</ele>
        <time>2015-10-31T10:07:40Z</time>
      </trkpt>
      <trkpt lat="47.79098" lon="3.57286">
        <ele>95.99</ele>
        <time>2015-10-31T10:07:45Z</time>
      </trkpt>
      <trkpt lat="47.79081" lon="3.57299">
        <ele>101.51</ele>
        <time>2015-10-31T10:07:50Z</time>
      </trkpt>
      <trkpt lat="47.79065" lon="3.57316">
        <ele>105.99</ele>
        <time>2015-10-31T10:07:57Z</time>
      </trkpt>
      <trkpt lat="47.79066" lon="3.57345">
        <ele>101.42</ele>
        <time>2015-10-31T10:08:06Z</time>
      </trkpt>
      <trkpt lat="47.79075" lon="3.5737">
        <ele>95.51</ele>
        <time>2015-10-31T10:08:14Z</time>
      </trkpt>
      <trkpt lat="47.79084" lon="3.57398">
        <ele>95.98</ele>
        <time>2015-10-31T10:08:23Z</time>
      </trkpt>
      <trkpt lat="47.79091" lon="3.57424">
        <ele>95.74</ele>
        <time>2015-10-31T10:08:31Z</time>
      </trkpt>
      <trkpt lat="47.79102" lon="3.57447">
        <ele>97.34</ele>
        <time>2015-10-31T10:08:39Z</time>
      </trkpt>
      <trkpt lat="47.79114" lon="3.57471">
        <ele>97.22</ele>
        <time>2015-10-31T10:08:47Z</time>
      </trkpt>
      <trkpt lat="47.79127" lon="3.57494">
        <ele>98.28</ele>
        <time>2015-10-31T10:08:56Z</time>
      </trkpt>
      <trkpt lat="47.7914" lon="3.57514">
        <ele>94.11</ele>
        <time>2015-10-31T10:09:05Z</time>
      </trkpt>
      <trkpt lat="47.79147" lon="3.57545">
        <ele>88.99</ele>
        <time>2015-10-31T10:09:15Z</time>
      </trkpt>
      <trkpt lat="47.79155" lon="3.5757">
        <ele>97.62</ele>
        <time>2015-10-31T10:09:21Z</time>
      </trkpt>
      <trkpt lat="47.79166" lon="3.57597">
        <ele>95.99</ele>
        <time>2015-10-31T10:09:28Z</time>
      </trkpt>
      <trkpt lat="47.79173" lon="3.57625">
        <ele>94.44</ele>
        <time>2015-10-31T10:09:35Z</time>
      </trkpt>
      <trkpt lat="47.79182" lon="3.5765">
        <ele>100.82</ele>
        <time>2015-10-31T10:09:43Z</time>
      </trkpt>
      <trkpt lat="47.79191" lon="3.57675">
        <ele>100.33</ele>
        <time>2015-10-31T10:09:51Z</time>
      </trkpt>
      <trkpt lat="47.792" lon="3.57698">
        <ele>95.87</ele>
        <time>2015-10-31T10:10:01Z</time>
      </trkpt>
      <trkpt lat="47.79211" lon="3.57721">
        <ele>95.86</ele>
        <time>2015-10-31T10:10:10Z</time>
      </trkpt>
      <trkpt lat="47.79216" lon="3.57748">
        <ele>93.87</ele>
        <time>2015-10-31T10:10:19Z</time>
      </trkpt>
      <trkpt lat="47.7921" lon="3.57775">
        <ele>103.51</ele>
        <time>2015-10-31T10:10:28Z</time>
      </trkpt>
      <trkpt lat="47.79214" lon="3.57803">
        <ele>97.13</ele>
        <time>2015-10-31T10:10:35Z</time>
      </trkpt>
      <trkpt lat="47.79223" lon="3.57829">
        <ele>96.92</ele>
        <time>2015-10-31T10:10:43Z</time>
      </trkpt>
      <trkpt lat="47.79232" lon="3.57856">
        <ele>88.94</ele>
        <time>2015-10-31T10:10:51Z</time>
      </trkpt>
      <trkpt lat="47.79246" lon="3.57874">
        <ele>84.5</ele>
        <time>2015-10-31T10:10:59Z</time>
      </trkpt>
      <trkpt lat="47.79259" lon="3.57893">
        <ele>88.99</ele>
        <time>2015-10-31T10:11:07Z</time>
      </trkpt>
      <trkpt lat="47.79267" lon="3.57918">
        <ele>94.08</ele>
        <time>2015-10-31T10:11:15Z</time>
      </trkpt>
      <trkpt lat="47.79254" lon="3.57939">
        <ele>99.99</ele>
        <time>2015-10-31T10:11:25Z</time>
      </trkpt>
      <trkpt lat="47.79236" lon="3.57952">
        <ele>101.17</ele>
        <time>2015-10-31T10:11:33Z</time>
      </trkpt>
      <trkpt lat="47.79221" lon="3.57968">
        <ele>87.33</ele>
        <time>2015-10-31T10:11:43Z</time>
      </trkpt>
      <trkpt lat="47.79207" lon="3.57985">
        <ele>96.71</ele>
        <time>2015-10-31T10:11:51Z</time>
      </trkpt>
      <trkpt lat="47.79191" lon="3.58004">
        <ele>100.12</ele>
        <time>2015-10-31T10:11:59Z</time>
      </trkpt>
      <trkpt lat="47.79183" lon="3.58031">
        <ele>100.24</ele>
        <time>2015-10-31T10:12:09Z</time>
      </trkpt>
      <trkpt lat="47.79179" lon="3.58064">
        <ele>99.49</ele>
        <time>2015-10-31T10:12:19Z</time>
      </trkpt>
      <trkpt lat="47.79184" lon="3.58092">
        <ele>93.49</ele>
        <time>2015-10-31T10:12:28Z</time>
      </trkpt>
      <trkpt lat="47.79196" lon="3.58114">
        <ele>90.99</ele>
        <time>2015-10-31T10:12:36Z</time>
      </trkpt>
      <trkpt lat="47.79206" lon="3.5814">
        <ele>92.77</ele>
        <time>2015-10-31T10:12:43Z</time>
      </trkpt>
      <trkpt lat="47.79217" lon="3.58163">
        <ele>97.81</ele>
        <time>2015-10-31T10:12:51Z</time>
      </trkpt>
      <trkpt lat="47.7923" lon="3.58185">
        <ele>101</ele>
        <time>2015-10-31T10:13:02Z</time>
      </trkpt>
      <trkpt lat="47.79238" lon="3.58211">
        <ele>106.37</ele>
        <time>2015-10-31T10:13:13Z</time>
      </trkpt>
      <trkpt lat="47.79252" lon="3.58231">
        <ele>111.12</ele>
        <time>2015-10-31T10:13:20Z</time>
      </trkpt>
      <trkpt lat="47.79263" lon="3.58254">
        <ele>104.32</ele>
        <time>2015-10-31T10:13:28Z</time>
      </trkpt>
      <trkpt lat="47.79255" lon="3.58282">
        <ele>108.99</ele>
        <time>2015-10-31T10:13:38Z</time>
      </trkpt>
      <trkpt lat="47.79256" lon="3.58312">
        <ele>106.8</ele>
        <time>2015-10-31T10:13:48Z</time>
      </trkpt>
      <trkpt lat="47.7926" lon="3.58339">
        <ele>91.39</ele>
        <time>2015-10-31T10:13:55Z</time>
      </trkpt>
      <trkpt lat="47.79258" lon="3.58366">
        <ele>92.55</ele>
        <time>2015-10-31T10:14:03Z</time>
      </trkpt>
      <trkpt lat="47.79248" lon="3.58393">
        <ele>91.96</ele>
        <time>2015-10-31T10:14:10Z</time>
      </trkpt>
      <trkpt lat="47.79238" lon="3.58418">
        <ele>96.49</ele>
        <time>2015-10-31T10:14:17Z</time>
      </trkpt>
      <trkpt lat="47.79227" lon="3.5844">
        <ele>95.09</ele>
        <time>2015-10-31T10:14:27Z</time>
      </trkpt>
      <trkpt lat="47.79217" lon="3.58465">
        <ele>95.04</ele>
        <time>2015-10-31T10:14:37Z</time>
      </trkpt>
      <trkpt lat="47.79209" lon="3.58489">
        <ele>90.62</ele>
        <time>2015-10-31T10:14:44Z</time>
      </trkpt>
      <trkpt lat="47.79199" lon="3.58512">
        <ele>87.12</ele>
        <time>2015-10-31T10:14:51Z</time>
      </trkpt>
      <trkpt lat="47.79191" lon="3.58543">
        <ele>89.49</ele>
        <time>2015-10-31T10:14:59Z</time>
      </trkpt>
      <trkpt lat="47.79184" lon="3.5857">
        <ele>88.89</ele>
        <time>2015-10-31T10:15:07Z</time>
      </trkpt>
      <trkpt lat="47.79176" lon="3.58594">
        <ele>84.43</ele>
        <time>2015-10-31T10:15:15Z</time>
      </trkpt>
      <trkpt lat="47.79165" lon="3.58617">
        <ele>78.49</ele>
        <time>2015-10-31T10:15:24Z</time>
      </trkpt>
      <trkpt lat="47.79151" lon="3.58635">
        <ele>86.6</ele>
        <time>2015-10-31T10:15:30Z</time>
      </trkpt>
      <trkpt lat="47.79137" lon="3.58655">
        <ele>88.26</ele>
        <time>2015-10-31T10:15:36Z</time>
      </trkpt>
      <trkpt lat="47.79124" lon="3.58675">
        <ele>88.15</ele>
        <time>2015-10-31T10:15:44Z</time>
      </trkpt>
      <trkpt lat="47.79106" lon="3.58692">
        <ele>89.04</ele>
        <time>2015-10-31T10:15:52Z</time>
      </trkpt>
      <trkpt lat="47.79091" lon="3.58707">
        <ele>87.5</ele>
        <time>2015-10-31T10:15:59Z</time>
      </trkpt>
      <trkpt lat="47.79074" lon="3.58722">
        <ele>82.97</ele>
        <time>2015-10-31T10:16:07Z</time>
      </trkpt>
      <trkpt lat="47.79057" lon="3.58735">
        <ele>88.12</ele>
        <time>2015-10-31T10:16:16Z</time>
      </trkpt>
      <trkpt lat="47.7904" lon="3.58751">
        <ele>90.34</ele>
        <time>2015-10-31T10:16:24Z</time>
      </trkpt>
      <trkpt lat="47.79023" lon="3.58763">
        <ele>88.17</ele>
        <time>2015-10-31T10:16:33Z</time>
      </trkpt>
      <trkpt lat="47.79006" lon="3.58776">
        <ele>90.91</ele>
        <time>2015-10-31T10:16:41Z</time>
      </trkpt>
      <trkpt lat="47.78989" lon="3.58791">
        <ele>82.94</ele>
        <time>2015-10-31T10:16:48Z</time>
      </trkpt>
      <trkpt lat="47.78976" lon="3.58811">
        <ele>87.61</ele>
        <time>2015-10-31T10:16:55Z</time>
      </trkpt>
      <trkpt lat="47.78961" lon="3.5883">
        <ele>92.66</ele>
        <time>2015-10-31T10:17:03Z</time>
      </trkpt>
      <trkpt lat="47.78949" lon="3.58852">
        <ele>90.2</ele>
        <time>2015-10-31T10:17:10Z</time>
      </trkpt>
      <trkpt lat="47.78936" lon="3.58872">
        <ele>85.51</ele>
        <time>2015-10-31T10:17:17Z</time>
      </trkpt>
      <trkpt lat="47.78922" lon="3.58888">
        <ele>90.66</ele>
        <time>2015-10-31T10:17:24Z</time>
      </trkpt>
      <trkpt lat="47.78906" lon="3.58902">
        <ele>95.57</ele>
        <time>2015-10-31T10:17:33Z</time>
      </trkpt>
      <trkpt lat="47.7889" lon="3.58916">
        <ele>90.31</ele>
        <time>2015-10-31T10:17:42Z</time>
      </trkpt>
      <trkpt lat="47.78872" lon="3.58929">
        <ele>88.41</ele>
        <time>2015-10-31T10:17:51Z</time>
      </trkpt>
      <trkpt lat="47.78854" lon="3.5894">
        <ele>89.02</ele>
        <time>2015-10-31T10:18:00Z</time>
      </trkpt>
      <trkpt lat="47.78837" lon="3.58953">
        <ele>84.69</ele>
        <time>2015-10-31T10:18:07Z</time>
      </trkpt>
      <trkpt lat="47.78821" lon="3.58974">
        <ele>84.73</ele>
        <time>2015-10-31T10:18:14Z</time>
      </trkpt>
      <trkpt lat="47.78807" lon="3.58992">
        <ele>93.69</ele>
        <time>2015-10-31T10:18:21Z</time>
      </trkpt>
      <trkpt lat="47.78789" lon="3.5901">
        <ele>93.22</ele>
        <time>2015-10-31T10:18:30Z</time>
      </trkpt>
      <trkpt lat="47.78775" lon="3.5903">
        <ele>98.17</ele>
        <time>2015-10-31T10:18:38Z</time>
      </trkpt>
      <trkpt lat="47.78758" lon="3.59048">
        <ele>100.72</ele>
        <time>2015-10-31T10:18:45Z</time>
      </trkpt>
      <trkpt lat="47.78743" lon="3.59065">
        <ele>99.68</ele>
        <time>2015-10-31T10:18:53Z</time>
      </trkpt>
      <trkpt lat="47.78725" lon="3.59069">
        <ele>85.35</ele>
        <time>2015-10-31T10:19:02Z</time>
      </trkpt>
      <trkpt lat="47.78707" lon="3.59077">
        <ele>85.23</ele>
        <time>2015-10-31T10:19:11Z</time>
      </trkpt>
      <trkpt lat="47.78691" lon="3.5909">
        <ele>85.22</ele>
        <time>2015-10-31T10:19:18Z</time>
      </trkpt>
      <trkpt lat="47.78675" lon="3.59102">
        <ele>80.59</ele>
        <time>2015-10-31T10:19:27Z</time>
      </trkpt>
      <trkpt lat="47.78656" lon="3.5911">
        <ele>82.46</ele>
        <time>2015-10-31T10:19:37Z</time>
      </trkpt>
      <trkpt lat="47.7864" lon="3.59128">
        <ele>87.29</ele>
        <time>2015-10-31T10:19:46Z</time>
      </trkpt>
      <trkpt lat="47.78628" lon="3.59151">
        <ele>91.08</ele>
        <time>2015-10-31T10:19:54Z</time>
      </trkpt>
      <trkpt lat="47.78616" lon="3.59172">
        <ele>87.04</ele>
        <time>2015-10-31T10:20:01Z</time>
      </trkpt>
      <trkpt lat="47.78604" lon="3.59192">
        <ele>88.64</ele>
        <time>2015-10-31T10:20:08Z</time>
      </trkpt>
      <trkpt lat="47.78591" lon="3.59212">
        <ele>84.44</ele>
        <time>2015-10-31T10:20:15Z</time>
      </trkpt>
      <trkpt lat="47.78577" lon="3.59234">
        <ele>88.63</ele>
        <time>2015-10-31T10:20:21Z</time>
      </trkpt>
      <trkpt lat="47.78568" lon="3.59258">
        <ele>94.79</ele>
        <time>2015-10-31T10:20:27Z</time>
      </trkpt>
      <trkpt lat="47.78559" lon="3.59283">
        <ele>97.11</ele>
        <time>2015-10-31T10:20:35Z</time>
      </trkpt>
      <trkpt lat="47.78544" lon="3.593">
        <ele>98.35</ele>
        <time>2015-10-31T10:20:45Z</time>
      </trkpt>
      <trkpt lat="47.78529" lon="3.59319">
        <ele>96.22</ele>
        <time>2015-10-31T10:20:52Z</time>
      </trkpt>
      <trkpt lat="47.78514" lon="3.59334">
        <ele>94.33</ele>
        <time>2015-10-31T10:21:01Z</time>
      </trkpt>
      <trkpt lat="47.785" lon="3.5935">
        <ele>95.12</ele>
        <time>2015-10-31T10:21:10Z</time>
      </trkpt>
      <trkpt lat="47.78484" lon="3.59365">
        <ele>97.02</ele>
        <time>2015-10-31T10:21:19Z</time>
      </trkpt>
      <trkpt lat="47.78469" lon="3.59381">
        <ele>98.49</ele>
        <time>2015-10-31T10:21:29Z</time>
      </trkpt>
      <trkpt lat="47.78453" lon="3.59398">
        <ele>98.37</ele>
        <time>2015-10-31T10:21:37Z</time>
      </trkpt>
      <trkpt lat="47.78436" lon="3.59412">
        <ele>96.79</ele>
        <time>2015-10-31T10:21:45Z</time>
      </trkpt>
      <trkpt lat="47.78417" lon="3.59425">
        <ele>105.31</ele>
        <time>2015-10-31T10:21:54Z</time>
      </trkpt>
      <trkpt lat="47.78401" lon="3.59436">
        <ele>92.49</ele>
        <time>2015-10-31T10:22:06Z</time>
      </trkpt>
      <trkpt lat="47.78388" lon="3.59457">
        <ele>95.46</ele>
        <time>2015-10-31T10:22:15Z</time>
      </trkpt>
      <trkpt lat="47.78376" lon="3.59481">
        <ele>91.37</ele>
        <time>2015-10-31T10:22:20Z</time>
      </trkpt>
      <trkpt lat="47.7836" lon="3.59501">
        <ele>92.69</ele>
        <time>2015-10-31T10:22:26Z</time>
      </trkpt>
      <trkpt lat="47.7835" lon="3.59526">
        <ele>90.32</ele>
        <time>2015-10-31T10:22:36Z</time>
      </trkpt>
      <trkpt lat="47.78341" lon="3.59553">
        <ele>106.11</ele>
        <time>2015-10-31T10:22:44Z</time>
      </trkpt>
      <trkpt lat="47.78335" lon="3.59579">
        <ele>100.84</ele>
        <time>2015-10-31T10:23:11Z</time>
      </trkpt>
      <trkpt lat="47.78327" lon="3.59603">
        <ele>100.45</ele>
        <time>2015-10-31T10:23:18Z</time>
      </trkpt>
      <trkpt lat="47.7832" lon="3.5963">
        <ele>92.08</ele>
        <time>2015-10-31T10:23:26Z</time>
      </trkpt>
      <trkpt lat="47.78307" lon="3.59652">
        <ele>88.16</ele>
        <time>2015-10-31T10:23:34Z</time>
      </trkpt>
      <trkpt lat="47.78299" lon="3.59678">
        <ele>91.19</ele>
        <time>2015-10-31T10:23:43Z</time>
      </trkpt>
      <trkpt lat="47.78289" lon="3.59705">
        <ele>98.75</ele>
        <time>2015-10-31T10:23:51Z</time>
      </trkpt>
      <trkpt lat="47.78281" lon="3.5973">
        <ele>95.85</ele>
        <time>2015-10-31T10:23:58Z</time>
      </trkpt>
      <trkpt lat="47.78273" lon="3.59756">
        <ele>94.09</ele>
        <time>2015-10-31T10:24:06Z</time>
      </trkpt>
      <trkpt lat="47.78267" lon="3.59782">
        <ele>92.57</ele>
        <time>2015-10-31T10:24:14Z</time>
      </trkpt>
      <trkpt lat="47.78259" lon="3.5981">
        <ele>94.46</ele>
        <time>2015-10-31T10:24:23Z</time>
      </trkpt>
      <trkpt lat="47.78251" lon="3.59835">
        <ele>93.84</ele>
        <time>2015-10-31T10:24:30Z</time>
      </trkpt>
      <trkpt lat="47.78243" lon="3.59861">
        <ele>98.95</ele>
        <time>2015-10-31T10:24:39Z</time>
      </trkpt>
      <trkpt lat="47.78235" lon="3.59887">
        <ele>96.21</ele>
        <time>2015-10-31T10:24:48Z</time>
      </trkpt>
      <trkpt lat="47.78226" lon="3.59912">
        <ele>101.88</ele>
        <time>2015-10-31T10:24:57Z</time>
      </trkpt>
      <trkpt lat="47.78217" lon="3.59937">
        <ele>91.72</ele>
        <time>2015-10-31T10:25:06Z</time>
      </trkpt>
      <trkpt lat="47.78208" lon="3.59961">
        <ele>94.1</ele>
        <time>2015-10-31T10:25:15Z</time>
      </trkpt>
      <trkpt lat="47.78198" lon="3.59985">
        <ele>91.63</ele>
        <time>2015-10-31T10:25:23Z</time>
      </trkpt>
      <trkpt lat="47.78183" lon="3.60003">
        <ele>94.6</ele>
        <time>2015-10-31T10:25:32Z</time>
      </trkpt>
      <trkpt lat="47.78169" lon="3.60025">
        <ele>90.9</ele>
        <time>2015-10-31T10:25:40Z</time>
      </trkpt>
      <trkpt lat="47.78155" lon="3.60045">
        <ele>91.93</ele>
        <time>2015-10-31T10:25:49Z</time>
      </trkpt>
      <trkpt lat="47.78142" lon="3.60063">
        <ele>87.87</ele>
        <time>2015-10-31T10:25:56Z</time>
      </trkpt>
      <trkpt lat="47.78127" lon="3.60083">
        <ele>93.57</ele>
        <time>2015-10-31T10:26:05Z</time>
      </trkpt>
      <trkpt lat="47.78111" lon="3.60101">
        <ele>96.62</ele>
        <time>2015-10-31T10:26:15Z</time>
      </trkpt>
      <trkpt lat="47.78096" lon="3.60118">
        <ele>92.16</ele>
        <time>2015-10-31T10:26:24Z</time>
      </trkpt>
      <trkpt lat="47.78081" lon="3.60137">
        <ele>96.57</ele>
        <time>2015-10-31T10:26:33Z</time>
      </trkpt>
      <trkpt lat="47.78069" lon="3.60161">
        <ele>92.53</ele>
        <time>2015-10-31T10:26:40Z</time>
      </trkpt>
      <trkpt lat="47.78058" lon="3.60188">
        <ele>92.59</ele>
        <time>2015-10-31T10:26:47Z</time>
      </trkpt>
      <trkpt lat="47.78048" lon="3.60216">
        <ele>92.07</ele>
        <time>2015-10-31T10:26:53Z</time>
      </trkpt>
      <trkpt lat="47.78035" lon="3.60235">
        <ele>89.9</ele>
        <time>2015-10-31T10:27:04Z</time>
      </trkpt>
      <trkpt lat="47.78021" lon="3.60255">
        <ele>87.88</ele>
        <time>2015-10-31T10:27:13Z</time>
      </trkpt>
      <trkpt lat="47.7801" lon="3.60277">
        <ele>88.86</ele>
        <time>2015-10-31T10:27:22Z</time>
      </trkpt>
      <trkpt lat="47.78" lon="3.603">
        <ele>85.76</ele>
        <time>2015-10-31T10:27:31Z</time>
      </trkpt>
      <trkpt lat="47.77993" lon="3.60327">
        <ele>89.47</ele>
        <time>2015-10-31T10:27:38Z</time>
      </trkpt>
      <trkpt lat="47.77987" lon="3.60352">
        <ele>89.78</ele>
        <time>2015-10-31T10:27:45Z</time>
      </trkpt>
      <trkpt lat="47.7798" lon="3.60377">
        <ele>95.82</ele>
        <time>2015-10-31T10:27:52Z</time>
      </trkpt>
      <trkpt lat="47.7797" lon="3.604">
        <ele>89.62</ele>
        <time>2015-10-31T10:28:01Z</time>
      </trkpt>
      <trkpt lat="47.77961" lon="3.60424">
        <ele>87.2</ele>
        <time>2015-10-31T10:28:13Z</time>
      </trkpt>
      <trkpt lat="47.77974" lon="3.60403">
        <ele>92.31</ele>
        <time>2015-10-31T10:28:23Z</time>
      </trkpt>
      <trkpt lat="47.77983" lon="3.60378">
        <ele>95.79</ele>
        <time>2015-10-31T10:28:31Z</time>
      </trkpt>
      <trkpt lat="47.77988" lon="3.6035">
        <ele>97.57</ele>
        <time>2015-10-31T10:28:38Z</time>
      </trkpt>
      <trkpt lat="47.77997" lon="3.60325">
        <ele>93.86</ele>
        <time>2015-10-31T10:28:47Z</time>
      </trkpt>
      <trkpt lat="47.78007" lon="3.60302">
        <ele>98.28</ele>
        <time>2015-10-31T10:28:55Z</time>
      </trkpt>
      <trkpt lat="47.78017" lon="3.60278">
        <ele>93.94</ele>
        <time>2015-10-31T10:29:03Z</time>
      </trkpt>
      <trkpt lat="47.78028" lon="3.60255">
        <ele>97.21</ele>
        <time>2015-10-31T10:29:13Z</time>
      </trkpt>
      <trkpt lat="47.78039" lon="3.60231">
        <ele>93.42</ele>
        <time>2015-10-31T10:29:21Z</time>
      </trkpt>
      <trkpt lat="47.78051" lon="3.60209">
        <ele>98.59</ele>
        <time>2015-10-31T10:29:29Z</time>
      </trkpt>
      <trkpt lat="47.78062" lon="3.60188">
        <ele>98.76</ele>
        <time>2015-10-31T10:29:37Z</time>
      </trkpt>
      <trkpt lat="47.78072" lon="3.60165">
        <ele>101.06</ele>
        <time>2015-10-31T10:29:45Z</time>
      </trkpt>
      <trkpt lat="47.78083" lon="3.60142">
        <ele>92.28</ele>
        <time>2015-10-31T10:29:55Z</time>
      </trkpt>
      <trkpt lat="47.78097" lon="3.60121">
        <ele>91.84</ele>
        <time>2015-10-31T10:30:04Z</time>
      </trkpt>
      <trkpt lat="47.78112" lon="3.60101">
        <ele>95.4</ele>
        <time>2015-10-31T10:30:13Z</time>
      </trkpt>
      <trkpt lat="47.78126" lon="3.60081">
        <ele>101.5</ele>
        <time>2015-10-31T10:30:22Z</time>
      </trkpt>
      <trkpt lat="47.7814" lon="3.60062">
        <ele>93.45</ele>
        <time>2015-10-31T10:30:30Z</time>
      </trkpt>
      <trkpt lat="47.78156" lon="3.60045">
        <ele>100.63</ele>
        <time>2015-10-31T10:30:38Z</time>
      </trkpt>
      <trkpt lat="47.78169" lon="3.60026">
        <ele>96.93</ele>
        <time>2015-10-31T10:30:47Z</time>
      </trkpt>
      <trkpt lat="47.78183" lon="3.60004">
        <ele>96.98</ele>
        <time>2015-10-31T10:30:56Z</time>
      </trkpt>
      <trkpt lat="47.78197" lon="3.59983">
        <ele>99.79</ele>
        <time>2015-10-31T10:31:05Z</time>
      </trkpt>
      <trkpt lat="47.7821" lon="3.59963">
        <ele>100.15</ele>
        <time>2015-10-31T10:31:13Z</time>
      </trkpt>
      <trkpt lat="47.7822" lon="3.59939">
        <ele>94.58</ele>
        <time>2015-10-31T10:31:22Z</time>
      </trkpt>
      <trkpt lat="47.78229" lon="3.59913">
        <ele>95.84</ele>
        <time>2015-10-31T10:31:32Z</time>
      </trkpt>
      <trkpt lat="47.78239" lon="3.59888">
        <ele>96.47</ele>
        <time>2015-10-31T10:31:41Z</time>
      </trkpt>
      <trkpt lat="47.78247" lon="3.59863">
        <ele>97.99</ele>
        <time>2015-10-31T10:31:49Z</time>
      </trkpt>
      <trkpt lat="47.78254" lon="3.59836">
        <ele>97.14</ele>
        <time>2015-10-31T10:31:57Z</time>
      </trkpt>
      <trkpt lat="47.78262" lon="3.5981">
        <ele>96.44</ele>
        <time>2015-10-31T10:32:05Z</time>
      </trkpt>
      <trkpt lat="47.78269" lon="3.59783">
        <ele>95.39</ele>
        <time>2015-10-31T10:32:14Z</time>
      </trkpt>
      <trkpt lat="47.78277" lon="3.59757">
        <ele>96.84</ele>
        <time>2015-10-31T10:32:23Z</time>
      </trkpt>
      <trkpt lat="47.78284" lon="3.5973">
        <ele>94.36</ele>
        <time>2015-10-31T10:32:32Z</time>
      </trkpt>
      <trkpt lat="47.78294" lon="3.59705">
        <ele>95.53</ele>
        <time>2015-10-31T10:32:40Z</time>
      </trkpt>
      <trkpt lat="47.78302" lon="3.59681">
        <ele>95.23</ele>
        <time>2015-10-31T10:32:49Z</time>
      </trkpt>
      <trkpt lat="47.78311" lon="3.59656">
        <ele>96.37</ele>
        <time>2015-10-31T10:32:58Z</time>
      </trkpt>
      <trkpt lat="47.78322" lon="3.59634">
        <ele>94.55</ele>
        <time>2015-10-31T10:33:08Z</time>
      </trkpt>
      <trkpt lat="47.78331" lon="3.59609">
        <ele>90.54</ele>
        <time>2015-10-31T10:33:17Z</time>
      </trkpt>
      <trkpt lat="47.78339" lon="3.59584">
        <ele>95.01</ele>
        <time>2015-10-31T10:33:26Z</time>
      </trkpt>
      <trkpt lat="47.78346" lon="3.59557">
        <ele>90.5</ele>
        <time>2015-10-31T10:33:44Z</time>
      </trkpt>
      <trkpt lat="47.78344" lon="3.59529">
        <ele>89.73</ele>
        <time>2015-10-31T10:33:59Z</time>
      </trkpt>
      <trkpt lat="47.78356" lon="3.59506">
        <ele>90.93</ele>
        <time>2015-10-31T10:34:12Z</time>
      </trkpt>
      <trkpt lat="47.78371" lon="3.59491">
        <ele>92.39</ele>
        <time>2015-10-31T10:34:25Z</time>
      </trkpt>
      <trkpt lat="47.78387" lon="3.59474">
        <ele>91.87</ele>
        <time>2015-10-31T10:34:40Z</time>
      </trkpt>
      <trkpt lat="47.78401" lon="3.59453">
        <ele>88.5</ele>
        <time>2015-10-31T10:34:55Z</time>
      </trkpt>
      <trkpt lat="47.78417" lon="3.59439">
        <ele>98.92</ele>
        <time>2015-10-31T10:35:05Z</time>
      </trkpt>
      <trkpt lat="47.78432" lon="3.59423">
        <ele>95.07</ele>
        <time>2015-10-31T10:35:16Z</time>
      </trkpt>
      <trkpt lat="47.78445" lon="3.59403">
        <ele>101.49</ele>
        <time>2015-10-31T10:35:32Z</time>
      </trkpt>
      <trkpt lat="47.78461" lon="3.59385">
        <ele>101.83</ele>
        <time>2015-10-31T10:35:46Z</time>
      </trkpt>
      <trkpt lat="47.78477" lon="3.5937">
        <ele>97.61</ele>
        <time>2015-10-31T10:35:57Z</time>
      </trkpt>
      <trkpt lat="47.78494" lon="3.59357">
        <ele>95.79</ele>
        <time>2015-10-31T10:36:09Z</time>
      </trkpt>
      <trkpt lat="47.78511" lon="3.59347">
        <ele>90.78</ele>
        <time>2015-10-31T10:36:19Z</time>
      </trkpt>
      <trkpt lat="47.78524" lon="3.59327">
        <ele>96.91</ele>
        <time>2015-10-31T10:36:48Z</time>
      </trkpt>
      <trkpt lat="47.78538" lon="3.5931">
        <ele>93.98</ele>
        <time>2015-10-31T10:37:01Z</time>
      </trkpt>
      <trkpt lat="47.78553" lon="3.59295">
        <ele>89.19</ele>
        <time>2015-10-31T10:37:14Z</time>
      </trkpt>
      <trkpt lat="47.78567" lon="3.59277">
        <ele>89.86</ele>
        <time>2015-10-31T10:37:27Z</time>
      </trkpt>
      <trkpt lat="47.78574" lon="3.59248">
        <ele>88.65</ele>
        <time>2015-10-31T10:37:36Z</time>
      </trkpt>
      <trkpt lat="47.78585" lon="3.59226">
        <ele>96.14</ele>
        <time>2015-10-31T10:37:46Z</time>
      </trkpt>
      <trkpt lat="47.78599" lon="3.59205">
        <ele>98.43</ele>
        <time>2015-10-31T10:37:54Z</time>
      </trkpt>
      <trkpt lat="47.78612" lon="3.59185">
        <ele>96.21</ele>
        <time>2015-10-31T10:38:02Z</time>
      </trkpt>
      <trkpt lat="47.78624" lon="3.59164">
        <ele>96.91</ele>
        <time>2015-10-31T10:38:11Z</time>
      </trkpt>
      <trkpt lat="47.78638" lon="3.59145">
        <ele>96.02</ele>
        <time>2015-10-31T10:38:25Z</time>
      </trkpt>
      <trkpt lat="47.78655" lon="3.5913">
        <ele>90.39</ele>
        <time>2015-10-31T10:38:35Z</time>
      </trkpt>
      <trkpt lat="47.78671" lon="3.59116">
        <ele>87.87</ele>
        <time>2015-10-31T10:38:43Z</time>
      </trkpt>
      <trkpt lat="47.78688" lon="3.59103">
        <ele>89.49</ele>
        <time>2015-10-31T10:38:50Z</time>
      </trkpt>
      <trkpt lat="47.78705" lon="3.59091">
        <ele>88.96</ele>
        <time>2015-10-31T10:38:57Z</time>
      </trkpt>
      <trkpt lat="47.78723" lon="3.59077">
        <ele>97.32</ele>
        <time>2015-10-31T10:39:04Z</time>
      </trkpt>
      <trkpt lat="47.78739" lon="3.59062">
        <ele>91.64</ele>
        <time>2015-10-31T10:39:12Z</time>
      </trkpt>
      <trkpt lat="47.78756" lon="3.59046">
        <ele>94.93</ele>
        <time>2015-10-31T10:39:20Z</time>
      </trkpt>
      <trkpt lat="47.78773" lon="3.59031">
        <ele>97.03</ele>
        <time>2015-10-31T10:39:29Z</time>
      </trkpt>
      <trkpt lat="47.7879" lon="3.59016">
        <ele>98.39</ele>
        <time>2015-10-31T10:39:38Z</time>
      </trkpt>
      <trkpt lat="47.78807" lon="3.59">
        <ele>96.51</ele>
        <time>2015-10-31T10:39:48Z</time>
      </trkpt>
      <trkpt lat="47.78824" lon="3.58985">
        <ele>96.38</ele>
        <time>2015-10-31T10:39:58Z</time>
      </trkpt>
      <trkpt lat="47.7884" lon="3.5897">
        <ele>97.41</ele>
        <time>2015-10-31T10:40:07Z</time>
      </trkpt>
      <trkpt lat="47.78856" lon="3.58953">
        <ele>95.53</ele>
        <time>2015-10-31T10:40:17Z</time>
      </trkpt>
      <trkpt lat="47.78872" lon="3.58938">
        <ele>93.79</ele>
        <time>2015-10-31T10:40:26Z</time>
      </trkpt>
      <trkpt lat="47.78887" lon="3.58923">
        <ele>91.31</ele>
        <time>2015-10-31T10:40:35Z</time>
      </trkpt>
      <trkpt lat="47.78903" lon="3.58909">
        <ele>94.08</ele>
        <time>2015-10-31T10:40:43Z</time>
      </trkpt>
      <trkpt lat="47.78919" lon="3.58892">
        <ele>93.66</ele>
        <time>2015-10-31T10:40:52Z</time>
      </trkpt>
      <trkpt lat="47.78933" lon="3.58872">
        <ele>90.13</ele>
        <time>2015-10-31T10:41:01Z</time>
      </trkpt>
      <trkpt lat="47.78946" lon="3.58855">
        <ele>95.63</ele>
        <time>2015-10-31T10:41:09Z</time>
      </trkpt>
      <trkpt lat="47.7896" lon="3.58837">
        <ele>97.19</ele>
        <time>2015-10-31T10:41:19Z</time>
      </trkpt>
      <trkpt lat="47.78974" lon="3.58818">
        <ele>94.51</ele>
        <time>2015-10-31T10:41:27Z</time>
      </trkpt>
      <trkpt lat="47.78988" lon="3.58801">
        <ele>100.64</ele>
        <time>2015-10-31T10:41:35Z</time>
      </trkpt>
      <trkpt lat="47.79005" lon="3.58787">
        <ele>97.07</ele>
        <time>2015-10-31T10:41:44Z</time>
      </trkpt>
      <trkpt lat="47.79021" lon="3.58772">
        <ele>99.87</ele>
        <time>2015-10-31T10:41:53Z</time>
      </trkpt>
      <trkpt lat="47.79037" lon="3.58758">
        <ele>96.17</ele>
        <time>2015-10-31T10:42:01Z</time>
      </trkpt>
      <trkpt lat="47.79053" lon="3.58742">
        <ele>94.97</ele>
        <time>2015-10-31T10:42:10Z</time>
      </trkpt>
      <trkpt lat="47.79071" lon="3.58728">
        <ele>97.69</ele>
        <time>2015-10-31T10:42:19Z</time>
      </trkpt>
      <trkpt lat="47.79088" lon="3.58713">
        <ele>94.54</ele>
        <time>2015-10-31T10:42:28Z</time>
      </trkpt>
      <trkpt lat="47.79104" lon="3.58699">
        <ele>103.7</ele>
        <time>2015-10-31T10:42:37Z</time>
      </trkpt>
      <trkpt lat="47.79117" lon="3.58679">
        <ele>97.69</ele>
        <time>2015-10-31T10:42:45Z</time>
      </trkpt>
      <trkpt lat="47.79118" lon="3.58652">
        <ele>99.2</ele>
        <time>2015-10-31T10:42:54Z</time>
      </trkpt>
      <trkpt lat="47.7913" lon="3.58631">
        <ele>99.31</ele>
        <time>2015-10-31T10:43:04Z</time>
      </trkpt>
      <trkpt lat="47.79144" lon="3.58612">
        <ele>101.15</ele>
        <time>2015-10-31T10:43:14Z</time>
      </trkpt>
      <trkpt lat="47.79158" lon="3.58591">
        <ele>95.49</ele>
        <time>2015-10-31T10:43:23Z</time>
      </trkpt>
      <trkpt lat="47.79171" lon="3.5857">
        <ele>91.61</ele>
        <time>2015-10-31T10:43:32Z</time>
      </trkpt>
      <trkpt lat="47.7918" lon="3.58544">
        <ele>95.04</ele>
        <time>2015-10-31T10:43:41Z</time>
      </trkpt>
      <trkpt lat="47.79182" lon="3.58516">
        <ele>99.56</ele>
        <time>2015-10-31T10:43:50Z</time>
      </trkpt>
      <trkpt lat="47.79179" lon="3.58489">
        <ele>94.88</ele>
        <time>2015-10-31T10:43:59Z</time>
      </trkpt>
      <trkpt lat="47.79168" lon="3.58466">
        <ele>96.48</ele>
        <time>2015-10-31T10:44:07Z</time>
      </trkpt>
      <trkpt lat="47.79174" lon="3.58439">
        <ele>101.03</ele>
        <time>2015-10-31T10:44:19Z</time>
      </trkpt>
      <trkpt lat="47.79189" lon="3.5842">
        <ele>93.2</ele>
        <time>2015-10-31T10:44:29Z</time>
      </trkpt>
      <trkpt lat="47.79208" lon="3.58402">
        <ele>87.49</ele>
        <time>2015-10-31T10:44:41Z</time>
      </trkpt>
      <trkpt lat="47.79222" lon="3.58381">
        <ele>88.24</ele>
        <time>2015-10-31T10:44:51Z</time>
      </trkpt>
      <trkpt lat="47.79234" lon="3.58359">
        <ele>93.97</ele>
        <time>2015-10-31T10:44:59Z</time>
      </trkpt>
      <trkpt lat="47.79249" lon="3.58342">
        <ele>94.65</ele>
        <time>2015-10-31T10:45:09Z</time>
      </trkpt>
      <trkpt lat="47.79262" lon="3.58322">
        <ele>94.5</ele>
        <time>2015-10-31T10:45:18Z</time>
      </trkpt>
      <trkpt lat="47.79272" lon="3.58299">
        <ele>94.24</ele>
        <time>2015-10-31T10:45:26Z</time>
      </trkpt>
      <trkpt lat="47.79276" lon="3.5827">
        <ele>91.11</ele>
        <time>2015-10-31T10:45:34Z</time>
      </trkpt>
      <trkpt lat="47.79263" lon="3.58248">
        <ele>93.14</ele>
        <time>2015-10-31T10:45:43Z</time>
      </trkpt>
      <trkpt lat="47.79245" lon="3.58243">
        <ele>93.24</ele>
        <time>2015-10-31T10:45:51Z</time>
      </trkpt>
      <trkpt lat="47.79226" lon="3.58239">
        <ele>98.41</ele>
        <time>2015-10-31T10:45:59Z</time>
      </trkpt>
      <trkpt lat="47.79207" lon="3.58241">
        <ele>103.15</ele>
        <time>2015-10-31T10:46:12Z</time>
      </trkpt>
      <trkpt lat="47.79189" lon="3.58235">
        <ele>100.75</ele>
        <time>2015-10-31T10:46:23Z</time>
      </trkpt>
      <trkpt lat="47.7917" lon="3.58231">
        <ele>99.55</ele>
        <time>2015-10-31T10:46:33Z</time>
      </trkpt>
      <trkpt lat="47.7915" lon="3.5823">
        <ele>103.1</ele>
        <time>2015-10-31T10:46:42Z</time>
      </trkpt>
      <trkpt lat="47.79131" lon="3.58228">
        <ele>101.06</ele>
        <time>2015-10-31T10:46:50Z</time>
      </trkpt>
      <trkpt lat="47.79112" lon="3.58228">
        <ele>98.44</ele>
        <time>2015-10-31T10:47:01Z</time>
      </trkpt>
      <trkpt lat="47.79093" lon="3.58228">
        <ele>101.92</ele>
        <time>2015-10-31T10:47:09Z</time>
      </trkpt>
      <trkpt lat="47.79073" lon="3.58228">
        <ele>98.51</ele>
        <time>2015-10-31T10:47:19Z</time>
      </trkpt>
      <trkpt lat="47.79055" lon="3.58228">
        <ele>98.31</ele>
        <time>2015-10-31T10:47:28Z</time>
      </trkpt>
      <trkpt lat="47.79035" lon="3.58223">
        <ele>99.19</ele>
        <time>2015-10-31T10:47:38Z</time>
      </trkpt>
      <trkpt lat="47.79017" lon="3.5822">
        <ele>100.2</ele>
        <time>2015-10-31T10:47:47Z</time>
      </trkpt>
      <trkpt lat="47.78998" lon="3.58221">
        <ele>101.92</ele>
        <time>2015-10-31T10:47:56Z</time>
      </trkpt>
      <trkpt lat="47.78979" lon="3.58219">
        <ele>101.83</ele>
        <time>2015-10-31T10:48:05Z</time>
      </trkpt>
      <trkpt lat="47.78961" lon="3.58216">
        <ele>103.59</ele>
        <time>2015-10-31T10:48:13Z</time>
      </trkpt>
      <trkpt lat="47.78943" lon="3.58214">
        <ele>98.95</ele>
        <time>2015-10-31T10:48:22Z</time>
      </trkpt>
      <trkpt lat="47.78924" lon="3.58208">
        <ele>98.4</ele>
        <time>2015-10-31T10:48:31Z</time>
      </trkpt>
      <trkpt lat="47.78906" lon="3.58203">
        <ele>98.04</ele>
        <time>2015-10-31T10:48:40Z</time>
      </trkpt>
      <trkpt lat="47.78888" lon="3.58195">
        <ele>101.93</ele>
        <time>2015-10-31T10:48:49Z</time>
      </trkpt>
      <trkpt lat="47.78869" lon="3.58187">
        <ele>100.97</ele>
        <time>2015-10-31T10:48:58Z</time>
      </trkpt>
      <trkpt lat="47.78851" lon="3.58178">
        <ele>102.02</ele>
        <time>2015-10-31T10:49:08Z</time>
      </trkpt>
      <trkpt lat="47.78834" lon="3.58167">
        <ele>99.3</ele>
        <time>2015-10-31T10:49:18Z</time>
      </trkpt>
      <trkpt lat="47.78817" lon="3.58154">
        <ele>96.72</ele>
        <time>2015-10-31T10:49:27Z</time>
      </trkpt>
      <trkpt lat="47.788" lon="3.58142">
        <ele>94.33</ele>
        <time>2015-10-31T10:49:37Z</time>
      </trkpt>
      <trkpt lat="47.78782" lon="3.5813">
        <ele>98.42</ele>
        <time>2015-10-31T10:49:46Z</time>
      </trkpt>
      <trkpt lat="47.78766" lon="3.58114">
        <ele>102.86</ele>
        <time>2015-10-31T10:49:57Z</time>
      </trkpt>
      <trkpt lat="47.78749" lon="3.58097">
        <ele>104.99</ele>
        <time>2015-10-31T10:50:07Z</time>
      </trkpt>
      <trkpt lat="47.78733" lon="3.58081">
        <ele>105.26</ele>
        <time>2015-10-31T10:50:16Z</time>
      </trkpt>
      <trkpt lat="47.7872" lon="3.58062">
        <ele>111.81</ele>
        <time>2015-10-31T10:50:25Z</time>
      </trkpt>
      <trkpt lat="47.78705" lon="3.58045">
        <ele>108.66</ele>
        <time>2015-10-31T10:50:33Z</time>
      </trkpt>
      <trkpt lat="47.78692" lon="3.58024">
        <ele>108.1</ele>
        <time>2015-10-31T10:50:43Z</time>
      </trkpt>
      <trkpt lat="47.78679" lon="3.58004">
        <ele>106.78</ele>
        <time>2015-10-31T10:50:52Z</time>
      </trkpt>
      <trkpt lat="47.78668" lon="3.57981">
        <ele>106.16</ele>
        <time>2015-10-31T10:51:02Z</time>
      </trkpt>
      <trkpt lat="47.78656" lon="3.57958">
        <ele>103.89</ele>
        <time>2015-10-31T10:51:12Z</time>
      </trkpt>
      <trkpt lat="47.78644" lon="3.57935">
        <ele>109.21</ele>
        <time>2015-10-31T10:51:22Z</time>
      </trkpt>
      <trkpt lat="47.78632" lon="3.57912">
        <ele>107.05</ele>
        <time>2015-10-31T10:51:31Z</time>
      </trkpt>
      <trkpt lat="47.78622" lon="3.57889">
        <ele>106.98</ele>
        <time>2015-10-31T10:51:40Z</time>
      </trkpt>
      <trkpt lat="47.78617" lon="3.5786">
        <ele>108.28</ele>
        <time>2015-10-31T10:51:49Z</time>
      </trkpt>
      <trkpt lat="47.78621" lon="3.57832">
        <ele>110.11</ele>
        <time>2015-10-31T10:52:01Z</time>
      </trkpt>
      <trkpt lat="47.78633" lon="3.5781">
        <ele>104.7</ele>
        <time>2015-10-31T10:52:10Z</time>
      </trkpt>
      <trkpt lat="47.78646" lon="3.57788">
        <ele>104.75</ele>
        <time>2015-10-31T10:52:22Z</time>
      </trkpt>
      <trkpt lat="47.78655" lon="3.57763">
        <ele>109.96</ele>
        <time>2015-10-31T10:52:32Z</time>
      </trkpt>
      <trkpt lat="47.78661" lon="3.57738">
        <ele>107.12</ele>
        <time>2015-10-31T10:52:41Z</time>
      </trkpt>
      <trkpt lat="47.78669" lon="3.57712">
        <ele>107.15</ele>
        <time>2015-10-31T10:52:50Z</time>
      </trkpt>
      <trkpt lat="47.78677" lon="3.57687">
        <ele>108.57</ele>
        <time>2015-10-31T10:52:59Z</time>
      </trkpt>
      <trkpt lat="47.7869" lon="3.57665">
        <ele>108.16</ele>
        <time>2015-10-31T10:53:08Z</time>
      </trkpt>
      <trkpt lat="47.78703" lon="3.57644">
        <ele>108.89</ele>
        <time>2015-10-31T10:53:17Z</time>
      </trkpt>
      <trkpt lat="47.78717" lon="3.57625">
        <ele>105.7</ele>
        <time>2015-10-31T10:53:27Z</time>
      </trkpt>
      <trkpt lat="47.78719" lon="3.57597">
        <ele>106.89</ele>
        <time>2015-10-31T10:53:37Z</time>
      </trkpt>
      <trkpt lat="47.78716" lon="3.57568">
        <ele>103.9</ele>
        <time>2015-10-31T10:53:46Z</time>
      </trkpt>
      <trkpt lat="47.78727" lon="3.57546">
        <ele>107.12</ele>
        <time>2015-10-31T10:53:59Z</time>
      </trkpt>
      <trkpt lat="47.78745" lon="3.57535">
        <ele>105.17</ele>
        <time>2015-10-31T10:54:07Z</time>
      </trkpt>
      <trkpt lat="47.78762" lon="3.57526">
        <ele>105.63</ele>
        <time>2015-10-31T10:54:16Z</time>
      </trkpt>
      <trkpt lat="47.78779" lon="3.57517">
        <ele>103.96</ele>
        <time>2015-10-31T10:54:24Z</time>
      </trkpt>
      <trkpt lat="47.78798" lon="3.57505">
        <ele>101.55</ele>
        <time>2015-10-31T10:54:33Z</time>
      </trkpt>
      <trkpt lat="47.78816" lon="3.57493">
        <ele>103.44</ele>
        <time>2015-10-31T10:54:42Z</time>
      </trkpt>
      <trkpt lat="47.7883" lon="3.57474">
        <ele>106.19</ele>
        <time>2015-10-31T10:54:50Z</time>
      </trkpt>
      <trkpt lat="47.78828" lon="3.57446">
        <ele>101.53</ele>
        <time>2015-10-31T10:55:00Z</time>
      </trkpt>
      <trkpt lat="47.78847" lon="3.57438">
        <ele>100.5</ele>
        <time>2015-10-31T10:55:12Z</time>
      </trkpt>
      <trkpt lat="47.78865" lon="3.57429">
        <ele>101.89</ele>
        <time>2015-10-31T10:55:20Z</time>
      </trkpt>
      <trkpt lat="47.78884" lon="3.57421">
        <ele>104.29</ele>
        <time>2015-10-31T10:55:28Z</time>
      </trkpt>
      <trkpt lat="47.78904" lon="3.57416">
        <ele>103.74</ele>
        <time>2015-10-31T10:55:37Z</time>
      </trkpt>
      <trkpt lat="47.78923" lon="3.57408">
        <ele>105.13</ele>
        <time>2015-10-31T10:55:47Z</time>
      </trkpt>
      <trkpt lat="47.78941" lon="3.57396">
        <ele>106.93</ele>
        <time>2015-10-31T10:55:56Z</time>
      </trkpt>
      <trkpt lat="47.78957" lon="3.5738">
        <ele>106.58</ele>
        <time>2015-10-31T10:56:05Z</time>
      </trkpt>
      <trkpt lat="47.78974" lon="3.57367">
        <ele>107.48</ele>
        <time>2015-10-31T10:56:14Z</time>
      </trkpt>
      <trkpt lat="47.78991" lon="3.57355">
        <ele>103.35</ele>
        <time>2015-10-31T10:56:24Z</time>
      </trkpt>
      <trkpt lat="47.79009" lon="3.57344">
        <ele>110.38</ele>
        <time>2015-10-31T10:56:33Z</time>
      </trkpt>
      <trkpt lat="47.79027" lon="3.57337">
        <ele>111.62</ele>
        <time>2015-10-31T10:56:45Z</time>
      </trkpt>
      <trkpt lat="47.79045" lon="3.57325">
        <ele>106.66</ele>
        <time>2015-10-31T10:56:55Z</time>
      </trkpt>
      <trkpt lat="47.79064" lon="3.57313">
        <ele>102.57</ele>
        <time>2015-10-31T10:57:05Z</time>
      </trkpt>
      <trkpt lat="47.79081" lon="3.57303">
        <ele>105.82</ele>
        <time>2015-10-31T10:57:13Z</time>
      </trkpt>
      <trkpt lat="47.79097" lon="3.57291">
        <ele>106.66</ele>
        <time>2015-10-31T10:57:21Z</time>
      </trkpt>
      <trkpt lat="47.79114" lon="3.57282">
        <ele>98.82</ele>
        <time>2015-10-31T10:57:32Z</time>
      </trkpt>
      <trkpt lat="47.79132" lon="3.57271">
        <ele>101.06</ele>
        <time>2015-10-31T10:57:43Z</time>
      </trkpt>
      <trkpt lat="47.79149" lon="3.57256">
        <ele>97.99</ele>
        <time>2015-10-31T10:57:58Z</time>
      </trkpt>
    </trkseg>
  </trk>
</gpx>